Time;durP1;ratioP1;P1;durP2;ratioP2;P2;SDS_P1;SDS_P2;PMS_P1;PMS_P2;Temp;Humidity;BMP_temperature;BMP_pressure;BME280_temperature;BME280_humidity;BME280_pressure;Samples;Min_cycle;Max_cycle;Signal;HPM_P1;HPM_P2
2023/06/13 00:00:53;;;;;;;;;21.00;20.00;;;;;25.60;56.63;100515.00;2091630;28;47480;-57
2023/06/13 00:01:53;;;;;;;;;23.25;21.75;;;;;25.60;56.60;100520.44;2091114;28;45965;-58
2023/06/13 00:02:55;;;;;;;;;21.00;21.00;;;;;25.59;56.50;100519.56;2093714;28;46163;-57
2023/06/13 00:03:56;;;;;;;;;20.20;18.40;;;;;25.57;56.96;100518.84;2094918;28;46650;-58
2023/06/13 00:04:57;;;;;;;;;20.20;20.20;;;;;25.58;57.00;100511.56;2091441;28;46924;-58
2023/06/13 00:06:01;;;;;;;;;19.25;19.25;;;;;25.57;56.42;100515.25;2083998;28;45632;-57
2023/06/13 00:07:01;;;;;;;;;21.60;20.60;;;;;25.56;56.43;100514.41;2092043;28;45750;-58
2023/06/13 00:08:02;;;;;;;;;21.00;21.00;;;;;25.55;56.63;100514.53;2092063;28;45580;-57
2023/06/13 00:09:03;;;;;;;;;23.75;20.25;;;;;25.52;56.59;100511.06;2093657;28;45993;-59
2023/06/13 00:10:07;;;;;;;;;20.00;18.60;;;;;25.52;57.08;100512.94;2091256;28;45749;-58
2023/06/13 00:11:07;;;;;;;;;20.80;19.20;;;;;25.49;56.97;100510.50;2108038;27;45484;-58
2023/06/13 00:12:09;;;;;;;;;20.25;19.50;;;;;25.49;57.30;100514.06;2106482;27;45585;-58
2023/06/13 00:13:10;;;;;;;;;18.00;18.00;;;;;25.47;56.72;100516.06;2089654;28;45697;-58
2023/06/13 00:14:11;;;;;;;;;17.25;17.25;;;;;25.46;57.27;100519.78;2091465;28;45070;-58
2023/06/13 00:15:11;;;;;;;;;25.00;22.75;;;;;25.44;56.59;100518.19;2093117;28;46187;-57
2023/06/13 00:16:12;;;;;;;;;23.50;21.75;;;;;25.42;57.41;100517.47;2089319;28;45506;-58
2023/06/13 00:17:12;;;;;;;;;22.00;20.00;;;;;25.40;57.22;100514.84;2090881;28;45866;-58
2023/06/13 00:18:15;;;;;;;;;22.50;22.50;;;;;25.37;57.29;100512.41;2090987;28;46061;-58
2023/06/13 00:19:16;;;;;;;;;20.60;20.60;;;;;25.35;57.00;100508.13;2082392;28;45814;-59
2023/06/13 00:20:17;;;;;;;;;26.00;24.20;;;;;25.35;56.96;100511.69;2088141;28;46064;-56
2023/06/13 00:21:17;;;;;;;;;20.75;20.75;;;;;25.34;56.87;100506.41;2088982;28;45444;-58
2023/06/13 00:22:17;;;;;;;;;24.00;22.25;;;;;25.36;57.37;100504.41;2093059;28;46630;-57
2023/06/13 00:23:18;;;;;;;;;21.00;19.50;;;;;25.35;56.87;100514.41;2093910;28;46836;-57
2023/06/13 00:24:18;;;;;;;;;20.75;20.75;;;;;25.35;57.22;100505.41;2096638;28;45021;-59
2023/06/13 00:25:18;;;;;;;;;22.75;21.75;;;;;25.35;57.36;100503.53;2094093;28;46548;-58
2023/06/13 00:26:19;;;;;;;;;21.25;20.25;;;;;25.34;56.97;100501.81;2093672;28;46756;-57
2023/06/13 00:27:19;;;;;;;;;23.75;21.75;;;;;25.35;56.86;100502.69;2089904;28;46253;-57
2023/06/13 00:28:20;;;;;;;;;20.25;19.50;;;;;25.35;57.37;100506.25;2087436;28;46476;-57
2023/06/13 00:29:20;;;;;;;;;22.25;21.75;;;;;25.33;57.28;100502.81;2094679;28;45470;-57
2023/06/13 00:30:20;;;;;;;;;22.75;21.25;;;;;25.33;57.66;100508.25;2089934;28;46523;-58
2023/06/13 00:31:21;;;;;;;;;20.50;20.25;;;;;25.33;57.47;100508.25;2093614;28;45468;-58
2023/06/13 00:32:21;;;;;;;;;22.00;22.00;;;;;25.32;56.97;100501.09;2093865;28;46048;-58
2023/06/13 00:33:21;;;;;;;;;20.75;20.75;;;;;25.32;57.18;100500.25;2089998;28;46672;-58
2023/06/13 00:34:22;;;;;;;;;26.00;24.00;;;;;25.29;57.23;100497.78;2093123;28;45525;-57
2023/06/13 00:35:22;;;;;;;;;23.50;23.00;;;;;25.29;57.06;100498.66;2090163;28;46585;-59
2023/06/13 00:36:25;;;;;;;;;21.75;18.50;;;;;25.30;57.04;100500.38;2089974;28;46792;-60
2023/06/13 00:37:29;;;;;;;;;19.40;19.40;;;;;25.30;57.57;100494.09;2092573;28;49143;-58
2023/06/13 00:38:30;;;;;;;;;21.40;21.40;;;;;25.29;57.60;100495.94;2086013;28;45736;-57
2023/06/13 00:39:30;;;;;;;;;21.20;20.60;;;;;25.30;57.04;100496.81;2092530;28;46060;-58
2023/06/13 00:40:32;;;;;;;;;18.50;17.50;;;;;25.30;57.47;100494.94;2092936;28;45821;-57
2023/06/13 00:41:32;;;;;;;;;20.60;20.40;;;;;25.29;57.00;100495.09;2090088;28;46903;-58
2023/06/13 00:42:32;;;;;;;;;22.25;19.50;;;;;25.26;57.17;100487.19;2091536;28;45755;-58
2023/06/13 00:43:33;;;;;;;;;17.75;17.50;;;;;25.24;57.18;100493.59;2089396;28;45395;-60
2023/06/13 00:44:34;;;;;;;;;19.80;19.00;;;;;25.23;57.02;100488.31;2090947;28;46377;-59
2023/06/13 00:45:35;;;;;;;;;22.80;22.20;;;;;25.20;57.48;100494.88;2092622;28;46684;-60
2023/06/13 00:46:35;;;;;;;;;23.00;22.00;;;;;25.15;57.35;100486.25;2089651;28;46899;-59
2023/06/13 00:47:36;;;;;;;;;24.50;23.50;;;;;25.12;57.04;100489.22;2090944;28;46335;-59
2023/06/13 00:48:38;;;;;;;;;23.00;23.00;;;;;25.08;57.60;100495.06;2089975;28;45871;-58
2023/06/13 00:49:38;;;;;;;;;22.80;21.60;;;;;25.04;57.27;100490.91;2089363;28;46783;-56
2023/06/13 00:50:44;;;;;;;;;23.00;21.25;;;;;25.01;57.23;100485.72;2092590;28;45566;-58
2023/06/13 00:51:46;;;;;;;;;25.20;24.00;;;;;24.98;57.52;100485.94;2088491;28;45141;-58
2023/06/13 00:52:47;;;;;;;;;21.60;21.60;;;;;24.96;57.72;100486.09;2094060;28;45430;-62
2023/06/13 00:53:50;;;;;;;;;22.25;22.25;;;;;24.91;57.89;100486.50;2091815;28;46625;-58
2023/06/13 00:54:51;;;;;;;;;23.00;22.60;;;;;24.88;57.78;100484.00;2092358;28;45637;-58
2023/06/13 00:55:51;;;;;;;;;23.50;22.50;;;;;24.85;57.92;100484.28;2093917;28;45528;-56
2023/06/13 00:56:52;;;;;;;;;22.25;22.00;;;;;24.83;57.34;100483.56;2089033;28;45738;-57
2023/06/13 00:57:56;;;;;;;;;23.75;23.75;;;;;24.81;57.59;100490.09;2101051;28;45889;-57
2023/06/13 00:58:59;;;;;;;;;68.75;58.00;;;;;24.78;57.69;100487.66;2099492;28;45535;-56
2023/06/13 01:00:01;;;;;;;;;27.60;27.40;;;;;24.77;57.75;100484.06;2089230;28;46121;-59
2023/06/13 01:01:03;;;;;;;;;24.40;23.40;;;;;24.75;57.83;100488.75;2088674;28;46307;-58
2023/06/13 01:02:04;;;;;;;;;22.00;22.00;;;;;24.72;58.11;100493.59;2089057;28;46551;-58
2023/06/13 01:03:15;;;;;;;;;24.80;23.20;;;;;24.69;58.10;100483.00;2091801;28;45705;-59
2023/06/13 01:04:15;;;;;;;;;22.60;20.40;;;;;24.67;58.33;100485.84;2086615;28;45659;-56
2023/06/13 01:05:16;;;;;;;;;23.75;23.00;;;;;24.67;57.75;100483.13;2092144;28;46440;-59
2023/06/13 01:06:16;;;;;;;;;22.00;20.25;;;;;24.69;58.10;100483.00;2091543;28;46728;-57
2023/06/13 01:07:17;;;;;;;;;24.00;23.00;;;;;24.69;58.08;100483.88;2089071;28;45745;-58
2023/06/13 01:08:21;;;;;;;;;21.75;20.75;;;;;24.72;58.02;100478.16;2091880;28;46689;-58
2023/06/13 01:09:22;;;;;;;;;21.20;20.60;;;;;24.76;58.05;100484.19;2091438;28;45696;-57
2023/06/13 01:10:22;;;;;;;;;24.25;24.25;;;;;24.76;58.38;100481.47;2092485;28;45991;-56
2023/06/13 01:12:00;;;;;;;;;21.00;21.00;;;;;24.76;58.39;100481.47;2091803;28;45836;-58
2023/06/13 01:13:13;;;;;;;;;22.40;22.00;;;;;24.78;57.71;100483.09;2090701;28;45994;-59
2023/06/13 01:14:46;;;;;;;;;19.40;19.40;;;;;24.79;57.99;100479.38;2089860;28;45626;-57
2023/06/13 01:15:52;;;;;;;;;21.40;17.80;;;;;24.82;57.89;100478.25;2079698;28;46851;-59
2023/06/13 01:16:58;;;;;;;;;21.20;20.80;;;;;24.83;57.60;100480.84;2079982;28;46630;-57
2023/06/13 01:18:01;;;;;;;;;20.40;19.40;;;;;24.83;57.70;100475.41;2078342;28;45874;-61
2023/06/13 01:19:08;;;;;;;;;21.60;21.40;;;;;24.81;57.58;100481.97;2083427;28;47004;-58
2023/06/13 01:20:14;;;;;;;;;26.60;24.20;;;;;24.80;57.73;100478.41;2081810;28;45723;-58
2023/06/13 01:21:17;;;;;;;;;18.40;18.40;;;;;24.80;57.46;100474.81;2074445;28;46296;-57
2023/06/13 01:22:22;;;;;;;;;22.60;22.00;;;;;24.80;57.42;100474.81;2083272;28;46289;-60
2023/06/13 01:23:36;;;;;;;;;20.80;20.80;;;;;24.79;57.31;100478.53;2080101;28;46721;-58
2023/06/13 01:25:11;;;;;;;;;23.00;22.40;;;;;24.76;57.74;100478.75;2076255;28;48091;-57
2023/06/13 01:26:20;;;;;;;;;19.00;19.00;;;;;24.72;57.76;100478.16;2076973;28;46101;-57
2023/06/13 01:27:21;;;;;;;;;22.00;21.40;;;;;24.69;57.82;100478.44;2082176;28;46035;-56
2023/06/13 01:28:22;;;;;;;;;24.00;23.25;;;;;24.68;57.77;100478.56;2079516;28;46731;-57
2023/06/13 01:29:23;;;;;;;;;21.20;19.60;;;;;24.68;57.88;100467.72;2073121;28;45760;-56
2023/06/13 01:30:25;;;;;;;;;22.80;21.40;;;;;24.67;57.73;100475.00;2073176;28;47030;-59
2023/06/13 01:31:27;;;;;;;;;20.80;18.80;;;;;24.67;57.97;100471.44;2081239;28;46394;-57
2023/06/13 01:32:29;;;;;;;;;23.40;22.60;;;;;24.67;57.54;100469.56;2081608;28;46488;-59
2023/06/13 01:33:30;;;;;;;;;20.60;19.60;;;;;24.69;57.67;100470.28;2082315;28;46746;-56
2023/06/13 01:34:31;;;;;;;;;23.50;22.00;;;;;24.69;57.39;100473.00;2080079;28;45918;-58
2023/06/13 01:35:32;;;;;;;;;21.25;21.25;;;;;24.68;58.05;100474.00;2082088;28;45708;-58
2023/06/13 01:36:33;;;;;;;;;23.50;20.75;;;;;24.69;57.97;100475.72;2080899;28;45370;-58
2023/06/13 01:37:34;;;;;;;;;20.80;20.80;;;;;24.71;57.51;100472.88;2080417;28;46682;-57
2023/06/13 01:38:35;;;;;;;;;23.25;22.25;;;;;24.69;57.83;100473.00;2080589;28;48525;-56
2023/06/13 01:39:35;;;;;;;;;17.60;17.60;;;;;24.70;58.01;100471.16;2079994;28;45633;-58
2023/06/13 01:40:36;;;;;;;;;23.00;23.00;;;;;24.70;57.75;100466.59;2082859;28;45859;-59
2023/06/13 01:41:36;;;;;;;;;19.75;19.75;;;;;24.71;57.95;100467.44;2079576;28;46739;-56
2023/06/13 01:42:36;;;;;;;;;21.75;21.25;;;;;24.69;57.80;100470.28;2079539;28;46766;-58
2023/06/13 01:43:37;;;;;;;;;22.25;21.50;;;;;24.69;57.87;100474.88;2080464;28;45760;-59
2023/06/13 01:44:37;;;;;;;;;22.00;21.50;;;;;24.69;57.64;100472.16;2079003;28;45439;-56
2023/06/13 01:45:38;;;;;;;;;21.50;20.00;;;;;24.67;57.64;100468.72;2083502;28;45711;-58
2023/06/13 01:46:51;;;;;;;;;23.80;23.80;;;;;24.65;57.82;100463.41;2084754;28;45631;-57
2023/06/13 01:48:30;;;;;;;;;23.80;23.80;;;;;24.64;57.83;100470.66;2086699;28;45326;-59
2023/06/13 01:50:07;;;;;;;;;20.60;20.60;;;;;24.63;57.58;100468.94;2085982;28;45665;-57
2023/06/13 01:51:18;;;;;;;;;21.60;21.60;;;;;24.62;57.95;100464.50;2085921;28;45831;-58
2023/06/13 01:52:29;;;;;;;;;22.00;19.80;;;;;24.61;58.02;100457.38;2083496;28;46063;-56
2023/06/13 01:53:36;;;;;;;;;24.60;23.60;;;;;24.59;57.75;100462.06;2088884;28;46397;-57
2023/06/13 01:54:43;;;;;;;;;24.20;23.60;;;;;24.58;58.24;100462.19;2083994;28;46898;-58
2023/06/13 01:55:50;;;;;;;;;22.40;21.20;;;;;24.57;57.79;100457.75;2092461;28;45598;-59
2023/06/13 01:56:56;;;;;;;;;18.00;18.00;;;;;24.57;58.28;100464.06;2090463;28;46738;-59
2023/06/13 01:58:03;;;;;;;;;23.60;23.00;;;;;24.57;58.19;100468.63;2079884;28;46281;-58
2023/06/13 01:59:06;;;;;;;;;23.00;21.80;;;;;24.57;57.74;100460.47;2092275;28;45766;-58
2023/06/13 02:00:09;;;;;;;;;23.60;23.40;;;;;24.57;57.81;100458.63;2092087;28;47567;-58
2023/06/13 02:01:10;;;;;;;;;25.00;23.00;;;;;24.57;57.97;100453.19;2086238;28;45147;-59
2023/06/13 02:02:12;;;;;;;;;20.80;20.80;;;;;24.58;57.98;100456.78;2090247;28;45504;-58
2023/06/13 02:03:13;;;;;;;;;21.80;21.80;;;;;24.57;57.90;100458.63;2094648;28;46487;-58
2023/06/13 02:04:14;;;;;;;;;22.25;20.50;;;;;24.57;57.84;100460.47;2091021;28;45315;-57
2023/06/13 02:05:15;;;;;;;;;23.60;22.00;;;;;24.56;58.11;100461.47;2093097;28;46334;-58
2023/06/13 02:06:16;;;;;;;;;20.75;20.75;;;;;24.54;57.97;100467.03;2090014;28;46344;-57
2023/06/13 02:07:16;;;;;;;;;23.25;23.25;;;;;24.53;58.13;100464.44;2091887;28;46281;-57
2023/06/13 02:08:16;;;;;;;;;21.25;19.50;;;;;24.53;57.55;100465.31;2092217;28;46160;-58
2023/06/13 02:09:17;;;;;;;;;21.00;21.00;;;;;24.53;58.43;100464.44;2093597;28;45711;-58
2023/06/13 02:10:17;;;;;;;;;19.75;19.75;;;;;24.53;57.42;100467.16;2090419;28;46077;-58
2023/06/13 02:11:18;;;;;;;;;18.75;18.25;;;;;24.53;58.17;100461.75;2093016;28;46387;-59
2023/06/13 02:12:18;;;;;;;;;19.50;19.50;;;;;24.52;57.71;100462.69;2092572;28;47417;-56
2023/06/13 02:13:18;;;;;;;;;23.00;22.75;;;;;24.50;58.15;100462.81;2091491;28;46678;-58
2023/06/13 02:14:19;;;;;;;;;22.00;22.00;;;;;24.50;57.95;100454.69;2091849;28;45516;-57
2023/06/13 02:15:19;;;;;;;;;22.25;22.25;;;;;24.50;58.09;100461.97;2090317;28;45878;-57
2023/06/13 02:16:25;;;;;;;;;22.50;22.50;;;;;24.49;58.16;100463.81;2091874;28;46215;-59
2023/06/13 02:17:26;;;;;;;;;20.60;19.80;;;;;24.49;58.06;100460.25;2093995;28;45925;-56
2023/06/13 02:18:27;;;;;;;;;20.80;20.80;;;;;24.47;57.71;100459.53;2088947;28;46606;-59
2023/06/13 02:19:29;;;;;;;;;25.80;23.60;;;;;24.47;58.14;100452.25;2091580;28;46053;-58
2023/06/13 02:20:30;;;;;;;;;23.00;23.00;;;;;24.47;58.27;100451.38;2091293;28;46555;-58
2023/06/13 02:21:30;;;;;;;;;22.00;20.00;;;;;24.47;58.32;100463.09;2090256;28;46478;-58
2023/06/13 02:22:30;;;;;;;;;21.25;21.25;;;;;24.46;57.75;100455.94;2092900;28;45153;-55
2023/06/13 02:23:31;;;;;;;;;25.25;24.25;;;;;24.46;57.69;100458.66;2090858;28;45126;-59
2023/06/13 02:24:31;;;;;;;;;24.75;24.75;;;;;24.46;58.00;100458.66;2090551;28;45357;-59
2023/06/13 02:25:32;;;;;;;;;23.00;23.00;;;;;24.46;57.97;100455.94;2091243;28;46100;-60
2023/06/13 02:26:32;;;;;;;;;22.75;22.00;;;;;24.46;57.89;100458.66;2089384;28;45817;-57
2023/06/13 02:27:32;;;;;;;;;24.50;23.75;;;;;24.46;58.05;100449.66;2090387;28;46343;-58
2023/06/13 02:28:33;;;;;;;;;21.75;21.75;;;;;24.45;57.40;100453.38;2091383;28;45943;-56
2023/06/13 02:29:36;;;;;;;;;22.25;20.75;;;;;24.43;57.93;100450.78;2089298;28;46081;-59
2023/06/13 02:30:37;;;;;;;;;24.40;23.60;;;;;24.42;58.09;100459.06;2088633;28;46333;-59
2023/06/13 02:31:40;;;;;;;;;19.00;19.00;;;;;24.42;58.00;100450.91;2088643;28;46114;-58
2023/06/13 02:32:41;;;;;;;;;22.80;21.00;;;;;24.42;57.96;100454.50;2089699;28;46629;-58
2023/06/13 02:33:43;;;;;;;;;23.75;22.75;;;;;24.41;58.11;100452.78;2091355;28;46364;-57
2023/06/13 02:34:44;;;;;;;;;24.80;22.00;;;;;24.38;58.13;100447.56;2090370;28;45825;-58
2023/06/13 02:35:48;;;;;;;;;21.00;19.50;;;;;24.39;58.07;100453.88;2090534;28;46170;-59
2023/06/13 02:36:48;;;;;;;;;18.40;18.40;;;;;24.38;57.66;100444.88;2090739;28;46661;-59
2023/06/13 02:37:56;;;;;;;;;27.00;24.00;;;;;24.39;58.07;100451.16;2090841;28;45690;-58
2023/06/13 02:38:56;;;;;;;;;17.00;16.00;;;;;24.40;57.42;100450.19;2091033;28;46266;-57
2023/06/13 02:39:56;;;;;;;;;22.25;21.75;;;;;24.38;58.05;100438.56;2089394;28;47031;-58
2023/06/13 02:40:57;;;;;;;;;26.25;23.75;;;;;24.40;57.81;100444.78;2089583;28;46761;-59
2023/06/13 02:41:57;;;;;;;;;23.25;21.00;;;;;24.38;57.92;100444.00;2090115;28;46488;-58
2023/06/13 02:42:58;;;;;;;;;23.50;22.50;;;;;24.37;57.97;100448.56;2087208;28;45800;-58
2023/06/13 02:43:58;;;;;;;;;25.00;20.25;;;;;24.36;57.91;100444.13;2091654;28;45896;-59
2023/06/13 02:44:59;;;;;;;;;23.00;23.00;;;;;24.33;58.00;100445.25;2088938;28;45534;-58
2023/06/13 02:45:59;;;;;;;;;21.50;20.50;;;;;24.32;58.03;100448.09;2087449;28;46065;-59
2023/06/13 02:46:59;;;;;;;;;20.00;19.75;;;;;24.31;57.91;100444.53;2090910;28;46038;-55
2023/06/13 02:48:00;;;;;;;;;23.75;22.00;;;;;24.31;58.02;100451.81;2095924;28;46621;-58
2023/06/13 02:49:00;;;;;;;;;24.75;24.25;;;;;24.30;57.89;100444.66;2088619;28;46363;-58
2023/06/13 02:50:01;;;;;;;;;19.75;19.75;;;;;24.29;58.07;100441.06;2091016;28;46330;-58
2023/06/13 02:51:02;;;;;;;;;22.25;22.25;;;;;24.28;58.22;100441.19;2087590;28;45670;-57
2023/06/13 02:52:03;;;;;;;;;23.00;21.60;;;;;24.26;57.89;100445.84;2090605;28;47059;-59
2023/06/13 02:53:03;;;;;;;;;20.25;20.25;;;;;24.26;58.20;100441.28;2090284;28;47080;-57
2023/06/13 02:54:03;;;;;;;;;24.25;23.50;;;;;24.26;58.33;100448.56;2092205;28;45693;-57
2023/06/13 02:55:08;;;;;;;;;25.75;24.50;;;;;24.25;57.98;100441.41;2089051;28;48030;-58
2023/06/13 02:56:08;;;;;;;;;22.00;20.20;;;;;24.23;57.75;100438.84;2094650;28;45745;-57
2023/06/13 02:57:11;;;;;;;;;24.75;22.25;;;;;24.21;57.99;100438.13;2092129;28;45760;-56
2023/06/13 02:58:11;;;;;;;;;24.60;24.60;;;;;24.19;58.08;100437.38;2094793;28;46975;-59
2023/06/13 02:59:11;;;;;;;;;22.00;22.00;;;;;24.19;58.01;100437.38;2093388;28;46089;-58
2023/06/13 03:00:15;;;;;;;;;19.25;18.50;;;;;24.20;58.38;100430.09;2090525;28;46296;-59
2023/06/13 03:01:15;;;;;;;;;22.20;22.20;;;;;24.21;58.07;100434.53;2094885;28;46561;-58
2023/06/13 03:02:16;;;;;;;;;21.75;20.50;;;;;24.21;58.21;100437.25;2107204;27;46649;-57
2023/06/13 03:03:21;;;;;;;;;25.00;24.25;;;;;24.21;58.16;100437.25;2099822;28;45224;-59
2023/06/13 03:04:23;;;;;;;;;21.60;21.60;;;;;24.20;58.30;100438.25;2094005;28;47125;-59
2023/06/13 03:05:25;;;;;;;;;22.40;22.40;;;;;24.19;58.16;100441.94;2089536;28;46450;-59
2023/06/13 03:06:26;;;;;;;;;24.40;23.60;;;;;24.18;58.27;100438.38;2093068;28;45590;-58
2023/06/13 03:07:26;;;;;;;;;23.75;23.25;;;;;24.18;57.95;100442.94;2092512;28;46320;-59
2023/06/13 03:08:26;;;;;;;;;25.75;25.00;;;;;24.18;58.16;100443.78;2090246;28;46111;-57
2023/06/13 03:09:27;;;;;;;;;22.75;22.75;;;;;24.19;58.34;100450.09;2090157;28;45828;-57
2023/06/13 03:10:27;;;;;;;;;21.50;21.50;;;;;24.20;58.26;100449.09;2089857;28;45727;-56
2023/06/13 03:11:28;;;;;;;;;23.75;22.50;;;;;24.19;57.79;100452.78;2091101;28;46120;-57
2023/06/13 03:12:28;;;;;;;;;27.25;27.25;;;;;24.19;57.87;100444.66;2091345;28;46396;-57
2023/06/13 03:13:29;;;;;;;;;23.25;23.00;;;;;24.17;57.98;100447.50;2092181;28;46491;-59
2023/06/13 03:14:29;;;;;;;;;20.75;20.75;;;;;24.15;57.99;100457.63;2083952;28;46690;-57
2023/06/13 03:15:29;;;;;;;;;24.50;23.75;;;;;24.16;58.11;100453.06;2083808;28;45687;-58
2023/06/13 03:16:29;;;;;;;;;26.25;24.50;;;;;24.16;57.79;100444.91;2087596;28;45782;-58
2023/06/13 03:17:30;;;;;;;;;25.25;24.50;;;;;24.15;57.96;100446.78;2093118;28;46004;-58
2023/06/13 03:18:30;;;;;;;;;25.50;25.00;;;;;24.15;57.90;100452.19;2088278;28;45187;-58
2023/06/13 03:19:30;;;;;;;;;28.25;24.75;;;;;24.15;57.61;100454.03;2088426;28;45473;-58
2023/06/13 03:20:31;;;;;;;;;23.50;21.25;;;;;24.13;58.28;100448.72;2086464;28;46462;-59
2023/06/13 03:21:31;;;;;;;;;21.75;20.50;;;;;24.13;58.08;100450.56;2086507;28;46838;-59
2023/06/13 03:22:32;;;;;;;;;20.75;19.50;;;;;24.13;58.10;100451.44;2092578;28;46110;-58
2023/06/13 03:23:32;;;;;;;;;23.75;23.75;;;;;24.12;57.88;100447.00;2092038;28;45682;-59
2023/06/13 03:24:35;;;;;;;;;22.50;21.75;;;;;24.11;58.05;100450.69;2088811;28;46031;-58
2023/06/13 03:25:35;;;;;;;;;25.60;24.20;;;;;24.11;57.91;100450.69;2093534;28;45707;-57
2023/06/13 03:26:37;;;;;;;;;22.25;20.25;;;;;24.11;57.91;100450.69;2084785;28;46506;-57
2023/06/13 03:27:38;;;;;;;;;24.80;23.00;;;;;24.12;57.89;100455.13;2089702;28;45659;-58
2023/06/13 03:28:38;;;;;;;;;24.50;23.75;;;;;24.12;58.10;100457.84;2090441;28;45519;-57
2023/06/13 03:29:40;;;;;;;;;27.75;26.50;;;;;24.10;57.85;100448.97;2089454;28;45633;-57
2023/06/13 03:30:40;;;;;;;;;19.80;19.60;;;;;24.10;57.86;100448.13;2093046;28;45984;-58
2023/06/13 03:31:40;;;;;;;;;23.75;23.75;;;;;24.07;57.89;100438.41;2096124;28;45419;-58
2023/06/13 03:32:41;;;;;;;;;23.25;22.25;;;;;24.07;58.23;100450.09;2100706;28;46442;-59
2023/06/13 03:33:41;;;;;;;;;27.00;26.75;;;;;24.05;58.10;100446.66;2099494;28;46067;-57
2023/06/13 03:34:43;;;;;;;;;23.00;22.00;;;;;24.04;57.92;100444.06;2093266;28;45861;-58
2023/06/13 03:35:44;;;;;;;;;24.20;24.20;;;;;24.03;58.16;100445.94;2092812;28;46478;-59
2023/06/13 03:36:44;;;;;;;;;22.40;21.60;;;;;24.04;58.34;100446.78;2094634;28;46788;-56
2023/06/13 03:37:44;;;;;;;;;21.25;20.25;;;;;24.04;58.14;100446.78;2095749;28;46389;-58
2023/06/13 03:38:45;;;;;;;;;26.50;24.75;;;;;24.03;57.78;100442.34;2092593;28;46560;-59
2023/06/13 03:39:45;;;;;;;;;23.25;22.50;;;;;24.02;58.02;100446.91;2096601;28;46420;-58
2023/06/13 03:40:46;;;;;;;;;24.75;23.50;;;;;24.02;57.98;100446.91;2094905;28;45540;-57
2023/06/13 03:41:47;;;;;;;;;21.00;20.20;;;;;24.02;58.33;100446.06;2093881;28;46850;-58
2023/06/13 03:42:47;;;;;;;;;23.75;23.00;;;;;24.02;58.11;100443.34;2098232;28;46297;-57
2023/06/13 03:43:47;;;;;;;;;20.00;20.00;;;;;24.01;57.83;100442.50;2094452;28;45480;-59
2023/06/13 03:44:48;;;;;;;;;22.75;22.00;;;;;23.99;58.55;100439.00;2095445;28;45919;-56
2023/06/13 03:45:48;;;;;;;;;24.00;23.50;;;;;24.00;57.93;100439.88;2094797;28;46495;-59
2023/06/13 03:46:48;;;;;;;;;24.50;23.50;;;;;23.98;58.29;100440.00;2103048;28;45703;-59
2023/06/13 03:47:50;;;;;;;;;20.00;20.00;;;;;23.98;58.14;100445.44;2104811;28;45958;-57
2023/06/13 03:48:51;;;;;;;;;25.00;23.60;;;;;24.01;58.32;100444.31;2104075;28;46627;-57
2023/06/13 03:49:51;;;;;;;;;25.75;25.00;;;;;23.99;58.52;100439.00;2103762;28;45507;-59
2023/06/13 03:50:51;;;;;;;;;27.25;27.00;;;;;24.00;58.40;100439.88;2101212;28;45127;-60
2023/06/13 03:51:52;;;;;;;;;23.50;23.00;;;;;23.98;58.15;100436.44;2102664;28;45418;-58
2023/06/13 03:52:52;;;;;;;;;24.00;21.50;;;;;23.96;58.33;100439.28;2097124;28;45754;-58
2023/06/13 03:53:53;;;;;;;;;18.25;18.25;;;;;23.96;58.27;100436.56;2099921;28;46485;-58
2023/06/13 03:54:53;;;;;;;;;24.50;23.50;;;;;23.97;58.07;100448.25;2099379;28;46205;-59
2023/06/13 03:55:53;;;;;;;;;23.75;23.00;;;;;23.96;58.32;100439.28;2100048;28;46290;-59
2023/06/13 03:56:54;;;;;;;;;25.00;24.50;;;;;23.95;58.38;100445.69;2089213;28;45568;-57
2023/06/13 03:57:54;;;;;;;;;24.25;24.00;;;;;23.95;58.41;100450.25;2087739;28;46251;-56
2023/06/13 03:58:55;;;;;;;;;22.25;21.00;;;;;23.94;58.18;100449.38;2100784;28;46409;-57
2023/06/13 03:59:55;;;;;;;;;28.75;26.00;;;;;23.92;58.33;100451.38;2098614;28;46080;-58
2023/06/13 04:00:57;;;;;;;;;42.00;33.75;;;;;23.91;58.13;100446.94;2097797;28;45975;-60
2023/06/13 04:01:57;;;;;;;;;30.80;27.40;;;;;23.91;58.37;100455.06;2095151;28;48212;-59
2023/06/13 04:03:00;;;;;;;;;22.50;22.50;;;;;23.90;58.45;100444.34;2093407;28;46710;-57
2023/06/13 04:04:00;;;;;;;;;26.60;25.20;;;;;23.89;58.00;100454.34;2099420;28;46568;-57
2023/06/13 04:05:01;;;;;;;;;22.75;21.00;;;;;23.89;58.17;100451.63;2095427;28;46846;-58
2023/06/13 04:06:01;;;;;;;;;22.00;21.50;;;;;23.89;58.44;100448.06;2094321;28;46226;-59
2023/06/13 04:07:05;;;;;;;;;23.50;22.75;;;;;23.90;58.20;100455.19;2095777;28;46693;-60
2023/06/13 04:08:07;;;;;;;;;21.20;20.60;;;;;23.89;58.13;100450.75;2090410;28;46486;-59
2023/06/13 04:09:07;;;;;;;;;30.00;26.80;;;;;23.88;58.46;100447.16;2100243;28;46514;-58
2023/06/13 04:10:08;;;;;;;;;21.75;21.50;;;;;23.88;58.34;100451.72;2098632;28;45085;-59
2023/06/13 04:11:08;;;;;;;;;24.75;23.75;;;;;23.87;58.39;100445.44;2093790;28;45532;-58
2023/06/13 04:12:11;;;;;;;;;25.25;23.75;;;;;23.86;58.04;100449.13;2099588;28;45946;-59
2023/06/13 04:13:11;;;;;;;;;24.20;21.40;;;;;23.86;58.25;100446.44;2091471;28;45166;-58
2023/06/13 04:14:11;;;;;;;;;18.00;18.00;;;;;23.85;58.61;100447.41;2087428;28;45291;-58
2023/06/13 04:15:12;;;;;;;;;22.50;21.00;;;;;23.85;58.48;100441.13;2089401;28;46154;-59
2023/06/13 04:16:12;;;;;;;;;21.75;17.00;;;;;23.84;58.63;100445.69;2095498;28;46766;-59
2023/06/13 04:17:12;;;;;;;;;19.50;19.25;;;;;23.83;58.32;100449.38;2099247;28;45970;-59
2023/06/13 04:18:17;;;;;;;;;20.00;20.00;;;;;23.83;58.20;100449.38;2103303;28;46336;-58
2023/06/13 04:19:19;;;;;;;;;22.20;22.00;;;;;23.84;58.21;100450.25;2093969;28;45707;-58
2023/06/13 04:20:21;;;;;;;;;23.40;22.60;;;;;23.85;58.70;100454.69;2091328;28;46390;-60
2023/06/13 04:21:26;;;;;;;;;19.00;18.20;;;;;23.86;58.60;100451.84;2095143;28;46035;-57
2023/06/13 04:22:27;;;;;;;;;21.20;21.20;;;;;23.88;58.50;100458.00;2094053;28;45667;-57
2023/06/13 04:23:27;;;;;;;;;22.50;22.50;;;;;23.90;58.47;100455.19;2099219;28;46324;-58
2023/06/13 04:24:27;;;;;;;;;25.25;23.50;;;;;23.88;58.40;100449.00;2101917;28;45824;-58
2023/06/13 04:25:28;;;;;;;;;20.75;20.50;;;;;23.87;58.18;100456.28;2094243;28;45430;-59
2023/06/13 04:26:28;;;;;;;;;21.75;21.75;;;;;23.86;58.49;100457.25;2097071;28;46538;-59
2023/06/13 04:27:29;;;;;;;;;20.75;20.75;;;;;23.86;58.62;100454.56;2097778;28;45948;-59
2023/06/13 04:28:29;;;;;;;;;19.40;18.00;;;;;23.86;58.42;100459.97;2100421;28;46499;-58
2023/06/13 04:29:31;;;;;;;;;19.50;18.50;;;;;23.86;58.55;100456.41;2097257;28;46713;-56
2023/06/13 04:30:31;;;;;;;;;26.60;24.80;;;;;23.88;58.48;100457.13;2099643;28;46765;-59
2023/06/13 04:31:34;;;;;;;;;22.25;22.25;;;;;23.88;58.18;100455.28;2088443;28;48244;-58
2023/06/13 04:32:37;;;;;;;;;21.80;21.40;;;;;23.88;58.46;100465.28;2076302;28;46637;-58
2023/06/13 04:33:39;;;;;;;;;22.80;22.80;;;;;23.88;58.11;100462.56;2079216;28;47882;-59
2023/06/13 04:34:44;;;;;;;;;22.80;22.80;;;;;23.88;58.45;100462.56;2086332;28;45929;-57
2023/06/13 04:35:44;;;;;;;;;17.60;16.60;;;;;23.89;59.01;100459.75;2092897;28;45948;-57
2023/06/13 04:36:45;;;;;;;;;24.50;21.25;;;;;23.90;58.45;100460.63;2092360;28;46342;-60
2023/06/13 04:37:46;;;;;;;;;24.00;23.00;;;;;23.91;58.46;100462.34;2094610;28;45591;-58
2023/06/13 04:38:46;;;;;;;;;24.75;23.50;;;;;23.92;58.07;100464.91;2090689;28;46757;-58
2023/06/13 04:39:46;;;;;;;;;29.00;25.25;;;;;23.90;58.35;100466.91;2094212;28;46215;-58
2023/06/13 04:40:47;;;;;;;;;21.25;21.25;;;;;23.90;57.89;100466.03;2089341;28;45370;-58
2023/06/13 04:41:48;;;;;;;;;23.80;22.60;;;;;23.87;58.31;100461.69;2089730;28;45758;-56
2023/06/13 04:42:51;;;;;;;;;24.75;22.00;;;;;23.87;58.42;100471.69;2096571;28;45939;-57